Time;durP1;ratioP1;P1;durP2;ratioP2;P2;SDS_P1;SDS_P2;PMS_P1;PMS_P2;Temp;Humidity;BMP_temperature;BMP_pressure;BME280_temperature;BME280_humidity;BME280_pressure;Samples;Min_cycle;Max_cycle;Signal;HPM_P1;HPM_P2
2022/01/01 00:01:41;;;;;;;53.70;39.55;;;;;;;-142.18;100.00;57468.38;5109982;28;20139;-71
2022/01/01 00:04:09;;;;;;;70.82;51.53;;;;;;;-142.18;100.00;66283.38;5093090;28;20113;-71
2022/01/01 00:06:35;;;;;;;55.45;38.10;;;;;;;-142.18;100.00;68376.59;5111195;28;20056;-71
2022/01/01 00:09:03;;;;;;;56.08;39.13;;;;;;;-142.18;100.00;66169.84;5112308;28;20056;-71
2022/01/01 00:11:30;;;;;;;49.42;35.65;;;;;;;-142.18;100.00;68228.47;5112678;28;20056;-71
2022/01/01 00:13:57;;;;;;;57.90;41.08;;;;;;;-142.18;100.00;66015.75;5112525;28;20139;-71
2022/01/01 00:16:28;;;;;;;52.95;36.97;;;;;;;-142.18;100.00;66443.59;5096011;28;20500;-72
2022/01/01 00:18:57;;;;;;;35.42;28.83;;;;;;;-142.18;100.00;68275.13;5112410;28;20054;-71
2022/01/01 00:21:25;;;;;;;47.20;32.50;;;;;;;-142.18;100.00;67271.03;5112975;28;20425;-71
2022/01/01 00:23:52;;;;;;;51.13;35.47;;;;;;;-142.18;100.00;67017.50;5112793;28;20070;-71
2022/01/01 00:26:19;;;;;;;45.50;32.70;;;;;;;-142.18;100.00;69139.50;5113976;28;20159;-71
2022/01/01 00:28:46;;;;;;;39.15;31.85;;;;;;;-142.18;100.00;70322.69;5114568;27;20467;-71
2022/01/01 00:31:13;;;;;;;55.60;42.42;;;;;;;-142.18;100.00;66405.06;5134465;27;20395;-71
2022/01/01 00:33:40;;;;;;;48.45;34.67;;;;;;;-142.18;100.00;69186.16;5115601;27;20051;-71
2022/01/01 00:36:06;;;;;;;47.40;35.55;;;;;;;-142.18;100.00;67435.31;5134139;27;20150;-71
2022/01/01 00:38:33;;;;;;;42.22;32.53;;;;;;;-142.18;100.00;68542.94;5134287;27;20055;-71
2022/01/01 00:41:00;;;;;;;42.35;33.15;;;;;;;-142.18;100.00;69772.66;5133832;27;20055;-71
2022/01/01 00:43:27;;;;;;;44.05;32.13;;;;;;;-142.18;100.00;67861.28;5133387;27;20055;-71
2022/01/01 00:45:53;;;;;;;40.53;28.63;;;;;;;-142.18;100.00;68630.19;5132578;27;20154;-71
2022/01/01 00:48:20;;;;;;;38.50;30.33;;;;;;;-142.18;100.00;69484.47;5132691;27;20138;-71
2022/01/01 00:50:47;;;;;;;36.50;28.83;;;;;;;-142.18;100.00;69744.25;5133814;27;20056;-71
2022/01/01 00:53:13;;;;;;;36.65;29.35;;;;;;;-142.18;100.00;68175.72;5133294;27;20064;-71
2022/01/01 00:55:40;;;;;;;37.10;29.25;;;;;;;-142.18;100.00;67719.28;5132141;27;20075;-71
2022/01/01 00:58:07;;;;;;;35.88;28.13;;;;;;;-142.18;100.00;70409.97;5131795;27;20052;-71
2022/01/01 01:00:34;;;;;;;34.67;28.33;;;;;;;-142.18;100.00;67484.00;5132543;27;20126;-70
2022/01/01 01:03:10;;;;;;;37.00;27.52;;;;;;;-142.18;100.00;70949.94;5133237;27;20059;-70
2022/01/01 01:05:39;;;;;;;39.20;28.55;;;;;;;-142.18;100.00;69285.59;5130968;27;20052;-71
2022/01/01 01:08:07;;;;;;;37.55;27.85;;;;;;;-142.18;100.00;68904.09;5132638;27;20372;-71
2022/01/01 01:10:36;;;;;;;38.63;27.50;;;;;;;-142.18;100.00;69502.72;5113357;27;20056;-71
2022/01/01 01:13:09;;;;;;;39.00;28.13;;;;;;;-142.18;100.00;70046.66;5114182;27;20075;-71
2022/01/01 01:15:37;;;;;;;35.42;27.08;;;;;;;-142.18;100.00;68989.34;5112547;27;20060;-71
2022/01/01 01:18:08;;;;;;;37.75;27.02;;;;;;;-142.18;100.00;69074.56;5132365;27;20059;-70
2022/01/01 01:20:35;;;;;;;34.45;27.58;;;;;;;-142.18;100.00;70363.28;5131409;27;20060;-70
2022/01/01 01:23:02;;;;;;;35.22;26.15;;;;;;;-142.18;100.00;68800.63;5134130;27;20567;-70
2022/01/01 01:25:31;;;;;;;34.50;27.60;;;;;;;-142.18;100.00;70288.19;5116038;27;20055;-71
2022/01/01 01:28:06;;;;;;;34.25;26.45;;;;;;;-142.18;100.00;68964.97;5134529;27;20047;-70
2022/01/01 01:30:35;;;;;;;35.92;24.80;;;;;;;-142.18;100.00;68806.72;5135878;27;20148;-71
2022/01/01 01:33:03;;;;;;;37.65;26.67;;;;;;;-142.18;100.00;69340.38;5136085;27;20360;-71
2022/01/01 01:35:30;;;;;;;31.65;26.17;;;;;;;-142.18;100.00;68569.31;5116835;27;20059;-70
2022/01/01 01:37:58;;;;;;;34.95;25.15;;;;;;;-142.18;100.00;70290.22;5117143;27;20247;-71
2022/01/01 01:40:25;;;;;;;37.58;25.83;;;;;;;-142.18;100.00;68717.44;5115907;27;20158;-70
2022/01/01 01:42:52;;;;;;;30.55;25.17;;;;;;;-142.18;100.00;68043.88;5134721;27;20047;-70
2022/01/01 01:45:21;;;;;;;33.72;24.58;;;;;;;-142.18;100.00;69458.09;5134785;27;20410;-70
2022/01/01 01:47:50;;;;;;;35.78;25.77;;;;;;;-142.18;100.00;68364.41;5135897;27;20155;-71
2022/01/01 01:50:18;;;;;;;32.72;25.00;;;;;;;-142.18;100.00;68863.53;5132341;27;20066;-70
2022/01/01 01:52:54;;;;;;;31.27;24.65;;;;;;;-142.18;100.00;69204.44;5136157;27;20098;-71
2022/01/01 01:55:22;;;;;;;31.42;24.02;;;;;;;-142.18;100.00;70365.31;5135877;27;20094;-72
2022/01/01 01:57:48;;;;;;;35.38;25.42;;;;;;;-142.18;100.00;68806.72;5117913;27;20061;-72
2022/01/01 02:03:05;;;;;;;39.15;25.42;;;;;;;-142.18;100.00;69760.47;5136400;27;20055;-70
2022/01/01 02:05:37;;;;;;;35.95;25.13;;;;;;;-142.18;100.00;69851.81;5134017;27;20722;-71
2022/01/01 02:08:05;;;;;;;44.35;27.27;;;;;;;-142.18;100.00;68262.97;5133495;27;20067;-70
2022/01/01 02:10:33;;;;;;;41.55;27.33;;;;;;;-142.18;100.00;70681.97;5133152;27;20052;-71
2022/01/01 02:13:09;;;;;;;35.85;26.63;;;;;;;-142.18;100.00;69009.63;5134124;27;20058;-70
2022/01/01 02:18:08;;;;;;;38.35;24.75;;;;;;;-142.18;100.00;70044.63;5133064;27;20055;-70
2022/01/01 02:20:35;;;;;;;50.28;28.27;;;;;;;-142.18;100.00;67836.94;5133544;27;20063;-71
2022/01/01 02:23:03;;;;;;;38.00;25.60;;;;;;;-142.18;100.00;70345.03;5134724;27;20089;-70
2022/01/01 02:25:30;;;;;;;44.10;26.85;;;;;;;-142.18;100.00;70156.25;5117026;27;20062;-70
2022/01/01 02:27:57;;;;;;;40.88;27.05;;;;;;;-142.18;100.00;68920.34;5135037;27;20367;-70
2022/01/01 02:30:24;;;;;;;37.60;25.13;;;;;;;-142.18;100.00;69352.56;5135125;27;20134;-70
2022/01/01 02:32:50;;;;;;;44.47;29.58;;;;;;;-142.18;100.00;70267.88;5135931;27;20070;-70
2022/01/01 02:35:19;;;;;;;120.43;83.72;;;;;;;-142.18;100.00;70647.47;5138776;27;20059;-70
2022/01/01 02:37:46;;;;;;;38.95;26.20;;;;;;;-142.18;100.00;70182.63;5157744;27;20134;-71
2022/01/01 02:40:13;;;;;;;34.53;23.40;;;;;;;-142.18;100.00;69159.78;5158069;27;20067;-71
2022/01/01 02:42:42;;;;;;;52.53;33.08;;;;;;;-142.18;100.00;68741.78;5158943;27;20086;-71
2022/01/01 02:45:11;;;;;;;52.03;28.10;;;;;;;-142.18;100.00;69366.78;5158132;27;20062;-70
2022/01/01 02:47:39;;;;;;;41.88;25.77;;;;;;;-142.18;100.00;69378.94;5139746;27;20066;-70
2022/01/01 02:50:07;;;;;;;47.38;27.30;;;;;;;-142.18;100.00;69265.31;5157893;27;20175;-71
2022/01/01 02:52:34;;;;;;;36.30;24.95;;;;;;;-142.18;100.00;69249.06;5157302;27;20062;-70
2022/01/01 02:55:01;;;;;;;41.97;25.42;;;;;;;-142.18;100.00;68378.59;5157858;27;20063;-70
2022/01/01 02:57:28;;;;;;;42.85;24.75;;;;;;;-142.18;100.00;69102.97;5158062;27;20053;-71
2022/01/01 02:59:55;;;;;;;39.92;25.23;;;;;;;-142.18;100.00;69484.47;5157219;27;20055;-70
2022/01/01 03:02:22;;;;;;;40.60;26.60;;;;;;;-142.18;100.00;68711.34;5141336;27;20062;-70
2022/01/01 03:04:48;;;;;;;36.28;25.02;;;;;;;-142.18;100.00;69115.13;5158087;27;20086;-70
2022/01/01 03:07:16;;;;;;;59.45;28.95;;;;;;;-142.18;100.00;69614.34;5138790;27;20852;-70
2022/01/01 03:09:42;;;;;;;43.88;25.52;;;;;;;-142.18;100.00;68766.13;5157467;27;20051;-70
2022/01/01 03:12:12;;;;;;;43.97;25.50;;;;;;;-142.18;100.00;69318.06;5138950;27;20059;-70
2022/01/01 03:14:39;;;;;;;42.90;25.27;;;;;;;-142.18;100.00;68634.25;5157063;27;20078;-72
2022/01/01 03:17:08;;;;;;;60.58;35.28;;;;;;;-142.18;100.00;69395.19;5137628;27;20149;-70
2022/01/01 03:19:39;;;;;;;47.05;29.67;;;;;;;-142.18;100.00;68802.66;5139164;27;20071;-70
2022/01/01 03:22:06;;;;;;;36.78;24.60;;;;;;;-142.18;100.00;68248.78;5156924;27;20062;-71
2022/01/01 03:24:32;;;;;;;41.97;25.75;;;;;;;-142.18;100.00;67565.13;5157624;27;20059;-70
2022/01/01 03:27:01;;;;;;;40.90;25.65;;;;;;;-142.18;100.00;68544.97;5156806;27;20058;-71
2022/01/01 03:29:30;;;;;;;37.85;24.23;;;;;;;-142.18;100.00;68185.88;5158515;27;20425;-70
2022/01/01 03:31:57;;;;;;;38.95;25.00;;;;;;;-142.18;100.00;68429.34;5158092;27;20141;-71
2022/01/01 03:34:24;;;;;;;40.70;25.05;;;;;;;-142.18;100.00;68831.06;5157777;27;20055;-70
2022/01/01 03:36:51;;;;;;;35.90;24.45;;;;;;;-142.18;100.00;68808.75;5157378;27;20059;-70
2022/01/01 03:39:22;;;;;;;40.95;24.98;;;;;;;-142.18;100.00;68786.41;5157351;27;20069;-70
2022/01/01 03:41:49;;;;;;;38.15;23.88;;;;;;;-142.18;100.00;68760.03;5157243;27;20047;-70
2022/01/01 03:44:16;;;;;;;39.33;25.40;;;;;;;-142.18;100.00;69102.97;5157701;27;20111;-70
2022/01/01 03:46:43;;;;;;;39.15;25.48;;;;;;;-142.18;100.00;68238.63;5141389;27;20150;-70
2022/01/01 03:49:09;;;;;;;38.83;24.70;;;;;;;-142.18;100.00;68737.72;5117549;27;20060;-70
2022/01/01 03:51:37;;;;;;;37.17;22.85;;;;;;;-142.18;100.00;69482.44;5118015;28;20060;-71
2022/01/01 03:54:04;;;;;;;36.97;23.15;;;;;;;-142.18;100.00;69407.34;5115928;28;20067;-71
2022/01/01 03:56:32;;;;;;;41.53;23.88;;;;;;;-142.18;100.00;68993.38;5119111;27;20052;-70
2022/01/01 03:59:01;;;;;;;42.13;23.23;;;;;;;-142.18;100.00;68873.66;5135434;27;20047;-71
2022/01/01 04:01:28;;;;;;;40.40;24.73;;;;;;;-142.18;100.00;68987.31;5134070;27;20060;-70
2022/01/01 04:03:56;;;;;;;40.88;24.90;;;;;;;-142.18;100.00;69784.81;5137478;27;20062;-70
